Time;durP1;ratioP1;P1;durP2;ratioP2;P2;SDS_P1;SDS_P2;PMS_P1;PMS_P2;Temp;Humidity;BMP_temperature;BMP_pressure;BME280_temperature;BME280_humidity;BME280_pressure;Samples;Min_cycle;Max_cycle;Signal;HPM_P1;HPM_P2
2023/06/28 00:01:02;;;;;;;6.93;3.40;;;17.90;93.40;;;;;;5007534;28;20056;-75
2023/06/28 00:03:28;;;;;;;8.50;3.72;;;17.80;93.30;;;;;;5011684;28;20030;-77
2023/06/28 00:05:54;;;;;;;6.07;3.10;;;17.80;92.60;;;;;;5011032;28;20371;-78
2023/06/28 00:08:20;;;;;;;6.35;3.42;;;17.80;92.60;;;;;;5010071;28;20037;-73
2023/06/28 00:10:46;;;;;;;7.63;3.50;;;17.80;92.70;;;;;;5011387;28;20029;-76
2023/06/28 00:13:12;;;;;;;4.97;3.15;;;17.80;93.00;;;;;;5009762;28;20053;-78
2023/06/28 00:15:38;;;;;;;7.25;3.13;;;17.80;93.30;;;;;;5010770;28;20087;-78
2023/06/28 00:18:03;;;;;;;9.45;3.30;;;17.70;93.30;;;;;;5009492;28;20112;-79
2023/06/28 00:20:29;;;;;;;14.52;3.30;;;17.70;94.30;;;;;;4992879;28;20090;-78
2023/06/28 00:22:55;;;;;;;5.97;3.15;;;17.70;94.20;;;;;;5010778;28;20037;-79
2023/06/28 00:25:21;;;;;;;15.70;4.18;;;17.60;94.70;;;;;;5009281;28;20042;-75
2023/06/28 00:27:47;;;;;;;16.27;3.72;;;17.50;94.60;;;;;;5011054;28;20030;-79
2023/06/28 00:30:13;;;;;;;6.80;3.75;;;17.50;95.60;;;;;;5010691;28;20029;-77
2023/06/28 00:32:39;;;;;;;11.38;3.33;;;17.40;95.30;;;;;;5010563;28;20026;-77
2023/06/28 00:35:08;;;;;;;6.88;3.53;;;17.30;96.30;;;;;;5010512;28;20429;-75
2023/06/28 00:37:33;;;;;;;6.75;3.38;;;17.20;96.40;;;;;;5008200;28;20168;-79
2023/06/28 00:40:00;;;;;;;8.70;3.28;;;17.20;97.10;;;;;;5009113;28;20129;-79
2023/06/28 00:42:25;;;;;;;8.15;3.53;;;17.10;98.20;;;;;;5007148;28;20157;-82
2023/06/28 00:44:51;;;;;;;6.65;3.40;;;17.00;98.00;;;;;;5009551;28;20120;-79
2023/06/28 00:47:18;;;;;;;6.90;3.55;;;17.00;97.70;;;;;;5011706;28;20252;-79
2023/06/28 00:49:45;;;;;;;6.25;3.75;;;17.00;98.50;;;;;;4991584;28;20037;-78
2023/06/28 00:52:12;;;;;;;5.32;3.67;;;17.00;98.80;;;;;;5008884;28;20165;-76
2023/06/28 00:54:39;;;;;;;7.65;3.60;;;17.00;98.30;;;;;;5008731;28;20044;-76
2023/06/28 00:57:05;;;;;;;9.27;3.97;;;16.90;98.40;;;;;;5010776;28;20038;-78
2023/06/28 00:59:31;;;;;;;10.35;3.83;;;16.90;99.10;;;;;;4991066;28;20030;-78
2023/06/28 01:01:57;;;;;;;9.73;3.55;;;16.90;99.80;;;;;;5007332;28;20041;-76
2023/06/28 01:04:23;;;;;;;12.25;4.40;;;16.80;99.90;;;;;;5009518;28;20125;-74
2023/06/28 01:06:53;;;;;;;7.93;4.18;;;16.80;99.90;;;;;;5009244;28;20482;-79
2023/06/28 01:09:23;;;;;;;9.73;3.80;;;16.70;99.90;;;;;;5007281;28;20041;-77
2023/06/28 01:11:50;;;;;;;7.25;4.13;;;16.50;99.90;;;;;;5008398;28;20042;-78
2023/06/28 01:14:17;;;;;;;13.48;4.57;;;16.50;99.90;;;;;;5009556;28;20034;-77
2023/06/28 01:16:44;;;;;;;9.82;4.20;;;16.50;99.90;;;;;;5009543;28;20017;-79
2023/06/28 01:19:14;;;;;;;13.63;4.80;;;16.40;99.90;;;;;;5008290;28;20034;-79
2023/06/28 01:21:44;;;;;;;7.50;4.43;;;16.40;99.90;;;;;;5007975;28;20068;-79
2023/06/28 01:24:11;;;;;;;7.90;4.22;;;16.30;99.90;;;;;;5005830;28;20088;-75
2023/06/28 01:26:40;;;;;;;8.35;3.85;;;16.30;99.90;;;;;;5008154;28;20080;-76
2023/06/28 01:29:07;;;;;;;12.73;4.93;;;16.20;99.90;;;;;;5007247;28;20041;-77
2023/06/28 01:31:34;;;;;;;6.32;4.13;;;16.20;99.90;;;;;;5008211;28;20053;-76
2023/06/28 01:33:59;;;;;;;7.25;4.10;;;16.20;99.90;;;;;;5007687;28;20046;-81
2023/06/28 01:36:26;;;;;;;6.75;4.30;;;16.20;99.90;;;;;;5009480;28;20041;-73
2023/06/28 01:38:53;;;;;;;10.48;4.13;;;16.10;99.90;;;;;;5009096;28;20052;-79
2023/06/28 01:41:19;;;;;;;10.50;4.65;;;16.00;99.90;;;;;;5009771;28;20109;-80
2023/06/28 01:43:44;;;;;;;9.18;3.90;;;15.90;99.90;;;;;;4989010;28;20190;-77
2023/06/28 01:46:11;;;;;;;6.85;4.32;;;15.90;99.90;;;;;;5007636;28;20494;-79
2023/06/28 01:48:37;;;;;;;8.80;4.70;;;15.80;99.90;;;;;;5007344;28;20026;-79
2023/06/28 01:51:04;;;;;;;11.98;4.70;;;15.80;99.90;;;;;;5008123;28;20034;-78
2023/06/28 01:53:29;;;;;;;11.43;4.60;;;15.80;99.90;;;;;;5008407;28;20026;-79
2023/06/28 01:55:55;;;;;;;10.85;5.28;;;15.80;99.90;;;;;;5005697;28;20030;-78
2023/06/28 01:58:21;;;;;;;8.85;4.70;;;15.70;99.90;;;;;;5007426;28;20788;-78
2023/06/28 02:00:46;;;;;;;11.32;5.10;;;15.60;99.90;;;;;;5005841;28;20022;-76
2023/06/28 02:03:12;;;;;;;11.35;4.70;;;15.50;99.90;;;;;;5007886;28;20508;-77
2023/06/28 02:05:39;;;;;;;12.32;4.80;;;15.50;99.90;;;;;;5006856;28;20492;-76
2023/06/28 02:08:05;;;;;;;10.63;4.75;;;15.40;99.90;;;;;;5007879;28;20489;-79
2023/06/28 02:10:30;;;;;;;11.32;5.03;;;15.30;99.90;;;;;;5006821;28;20025;-79
2023/06/28 02:12:56;;;;;;;9.18;4.65;;;15.40;99.90;;;;;;4990287;28;20022;-78
2023/06/28 02:15:22;;;;;;;8.80;4.60;;;15.30;99.90;;;;;;5007586;28;20776;-77
2023/06/28 02:17:50;;;;;;;13.95;5.03;;;15.30;99.90;;;;;;5005486;28;20038;-76
2023/06/28 02:20:15;;;;;;;13.68;4.90;;;15.30;99.90;;;;;;5004776;28;20037;-76
2023/06/28 02:22:41;;;;;;;13.73;5.38;;;15.30;99.90;;;;;;5007235;28;20037;-78
2023/06/28 02:25:07;;;;;;;10.40;4.82;;;15.30;99.90;;;;;;5007708;28;20038;-76
2023/06/28 02:27:33;;;;;;;12.70;5.10;;;15.30;99.90;;;;;;5006303;28;20117;-77
2023/06/28 02:29:58;;;;;;;7.68;5.00;;;15.30;99.90;;;;;;5006813;28;20118;-77
2023/06/28 02:32:24;;;;;;;9.43;4.63;;;15.30;99.90;;;;;;5008145;28;20792;-78
2023/06/28 02:34:50;;;;;;;10.98;5.00;;;15.30;99.90;;;;;;4968966;28;1108858;-79
2023/06/28 02:37:16;;;;;;;8.02;4.85;;;15.30;99.90;;;;;;5009090;28;20037;-79
2023/06/28 02:39:41;;;;;;;9.85;4.78;;;15.30;99.90;;;;;;5006648;28;20036;-78
2023/06/28 02:42:07;;;;;;;9.15;4.63;;;15.40;99.90;;;;;;5008675;28;20038;-77
2023/06/28 02:44:35;;;;;;;9.25;4.65;;;15.40;99.90;;;;;;5007918;28;20041;-78
2023/06/28 02:47:01;;;;;;;8.27;4.68;;;15.50;99.90;;;;;;5006216;28;20379;-77
2023/06/28 02:49:27;;;;;;;12.38;5.15;;;15.50;99.90;;;;;;5005002;28;20036;-72
2023/06/28 02:51:52;;;;;;;12.23;5.03;;;15.50;99.90;;;;;;5006013;28;20033;-77
2023/06/28 02:54:19;;;;;;;12.15;5.22;;;15.50;99.90;;;;;;5007542;28;20521;-77
2023/06/28 02:56:44;;;;;;;6.75;4.32;;;15.40;99.90;;;;;;5007923;28;20470;-77
2023/06/28 02:59:10;;;;;;;10.27;4.55;;;15.30;99.90;;;;;;4989540;28;20038;-78
2023/06/28 03:01:35;;;;;;;9.73;4.97;;;15.30;99.90;;;;;;5007007;28;20657;-77
2023/06/28 03:04:02;;;;;;;9.07;4.70;;;15.40;99.90;;;;;;5007785;28;20034;-79
2023/06/28 03:06:27;;;;;;;10.32;4.90;;;15.40;99.90;;;;;;5004161;28;20049;-75
2023/06/28 03:08:53;;;;;;;9.07;4.78;;;15.40;99.90;;;;;;5003281;28;20335;-79
2023/06/28 03:11:19;;;;;;;10.85;5.22;;;15.40;99.90;;;;;;5001689;28;20018;-78
2023/06/28 03:13:44;;;;;;;11.52;4.82;;;15.50;99.90;;;;;;5005311;28;20497;-79
2023/06/28 03:16:10;;;;;;;10.15;5.57;;;15.50;99.90;;;;;;5007757;28;20034;-78
2023/06/28 03:18:36;;;;;;;9.48;5.50;;;15.40;99.90;;;;;;5007167;28;20041;-75
2023/06/28 03:21:02;;;;;;;14.02;5.13;;;15.20;99.90;;;;;;5006927;28;20030;-77
2023/06/28 03:23:27;;;;;;;13.80;5.40;;;15.10;99.90;;;;;;5008353;28;20493;-77
2023/06/28 03:25:53;;;;;;;12.30;5.53;;;14.90;99.90;;;;;;5005916;28;20073;-78
2023/06/28 03:28:19;;;;;;;11.13;5.88;;;14.90;99.90;;;;;;5006333;28;20117;-78
2023/06/28 03:30:45;;;;;;;8.90;5.13;;;14.90;99.90;;;;;;5005995;28;20038;-77
2023/06/28 03:33:10;;;;;;;15.43;5.60;;;14.90;99.90;;;;;;5006064;28;20571;-77
2023/06/28 03:35:36;;;;;;;11.98;6.00;;;14.90;99.90;;;;;;5005121;28;20659;-75
2023/06/28 03:38:02;;;;;;;10.82;5.50;;;14.90;99.90;;;;;;5007458;28;20371;-75
2023/06/28 03:40:31;;;;;;;11.65;5.20;;;14.90;99.90;;;;;;5007157;28;20061;-75
2023/06/28 03:42:56;;;;;;;13.35;5.25;;;15.00;99.90;;;;;;5008045;28;20034;-77
2023/06/28 03:45:22;;;;;;;10.57;5.90;;;15.00;99.90;;;;;;5005709;28;20061;-76
2023/06/28 03:47:48;;;;;;;10.77;5.25;;;15.00;99.90;;;;;;5005465;28;20438;-76
2023/06/28 03:50:14;;;;;;;9.80;5.68;;;15.00;99.90;;;;;;5006153;28;20200;-76
2023/06/28 03:52:40;;;;;;;17.88;5.78;;;15.00;99.90;;;;;;4997994;28;20029;-78
2023/06/28 03:55:06;;;;;;;13.93;6.35;;;15.00;99.90;;;;;;5005874;28;20096;-77
2023/06/28 03:57:32;;;;;;;11.02;6.00;;;15.10;99.90;;;;;;5007624;28;20389;-72
2023/06/28 03:59:58;;;;;;;9.43;5.32;;;15.20;99.90;;;;;;5004816;28;20058;-74
2023/06/28 04:02:24;;;;;;;8.98;5.72;;;15.20;99.90;;;;;;4989581;28;20541;-74
2023/06/28 04:04:49;;;;;;;11.48;6.45;;;15.30;99.90;;;;;;5005879;28;20115;-75
2023/06/28 04:07:16;;;;;;;11.05;5.55;;;15.30;99.90;;;;;;4995418;28;20062;-74
2023/06/28 04:09:43;;;;;;;10.23;6.07;;;15.30;99.90;;;;;;5003842;28;20133;-74
2023/06/28 04:12:09;;;;;;;13.18;5.95;;;15.30;99.90;;;;;;4988757;28;20046;-72
2023/06/28 04:14:35;;;;;;;9.82;5.47;;;15.40;99.90;;;;;;4999391;28;20041;-70
2023/06/28 04:17:00;;;;;;;11.90;5.97;;;15.40;99.90;;;;;;5001338;28;20030;-73
2023/06/28 04:19:26;;;;;;;10.65;6.20;;;15.40;99.90;;;;;;5007723;28;20081;-73
2023/06/28 04:21:51;;;;;;;14.82;6.55;;;15.40;99.90;;;;;;5005707;28;20034;-75
2023/06/28 04:24:17;;;;;;;11.88;5.80;;;15.40;99.90;;;;;;5007751;28;20395;-72
2023/06/28 04:26:42;;;;;;;10.68;5.82;;;15.40;99.90;;;;;;5006910;28;20038;-78
2023/06/28 04:29:08;;;;;;;10.38;5.63;;;15.40;99.90;;;;;;5007589;28;20068;-76
2023/06/28 04:31:34;;;;;;;13.63;6.00;;;15.30;99.90;;;;;;5003586;28;20061;-72
2023/06/28 04:34:00;;;;;;;12.30;5.47;;;15.30;99.90;;;;;;5006183;28;20062;-73
2023/06/28 04:36:26;;;;;;;9.13;5.70;;;15.40;99.90;;;;;;5005062;28;20096;-74
2023/06/28 04:38:54;;;;;;;8.25;5.15;;;15.30;99.90;;;;;;5001867;28;20640;-75
2023/06/28 04:41:26;;;;;;;8.63;5.60;;;15.30;99.90;;;;;;5006662;28;20030;-73
2023/06/28 04:43:56;;;;;;;11.88;5.75;;;15.30;99.90;;;;;;5004537;28;20434;-77
2023/06/28 04:46:28;;;;;;;12.60;5.95;;;15.40;99.90;;;;;;5006474;28;20489;-74
2023/06/28 04:48:56;;;;;;;15.48;6.20;;;15.40;99.90;;;;;;5008815;28;20295;-73
2023/06/28 04:51:22;;;;;;;11.77;5.88;;;15.50;99.90;;;;;;5011600;28;20108;-75
2023/06/28 04:53:49;;;;;;;8.25;5.90;;;15.40;99.90;;;;;;5010125;28;20046;-77
2023/06/28 04:56:15;;;;;;;11.40;6.28;;;15.40;99.90;;;;;;5008318;28;20112;-77
2023/06/28 04:58:41;;;;;;;11.88;6.63;;;15.50;99.90;;;;;;5008496;28;20100;-77
2023/06/28 05:01:07;;;;;;;9.32;6.00;;;15.60;99.90;;;;;;5007639;28;20029;-76
2023/06/28 05:03:38;;;;;;;9.90;6.18;;;15.60;99.90;;;;;;5009305;28;20034;-72
2023/06/28 05:06:07;;;;;;;15.55;5.97;;;15.70;99.90;;;;;;5010502;28;20038;-80
2023/06/28 05:08:34;;;;;;;9.63;6.40;;;15.80;99.90;;;;;;5009858;28;20044;-71
2023/06/28 05:11:00;;;;;;;11.02;6.20;;;15.80;99.90;;;;;;5007928;28;20080;-80
2023/06/28 05:13:26;;;;;;;13.73;6.18;;;15.80;99.90;;;;;;5007736;28;20479;-78
2023/06/28 05:15:52;;;;;;;17.33;6.60;;;15.80;99.90;;;;;;5002721;28;20041;-72
2023/06/28 05:18:18;;;;;;;10.82;6.72;;;15.80;99.90;;;;;;5008259;28;20041;-78
2023/06/28 05:20:44;;;;;;;14.88;7.30;;;15.80;99.90;;;;;;5009007;28;20033;-77
2023/06/28 05:23:12;;;;;;;13.27;6.80;;;15.80;99.90;;;;;;5010183;28;20132;-77
2023/06/28 05:25:39;;;;;;;16.25;6.75;;;15.80;99.90;;;;;;5009521;28;20470;-72
2023/06/28 05:28:06;;;;;;;10.00;6.30;;;15.90;99.90;;;;;;5010228;28;20048;-77
2023/06/28 05:30:32;;;;;;;11.27;6.15;;;16.00;99.90;;;;;;5010192;28;20104;-83
2023/06/28 05:33:01;;;;;;;11.05;6.00;;;16.00;99.90;;;;;;5009858;28;20030;-77
2023/06/28 05:35:27;;;;;;;11.70;6.35;;;16.00;99.90;;;;;;5010110;28;20037;-74
2023/06/28 05:37:53;;;;;;;12.63;6.68;;;16.00;99.90;;;;;;5010339;28;20048;-81
2023/06/28 05:40:18;;;;;;;15.15;6.40;;;16.00;99.90;;;;;;5009738;28;20026;-77
2023/06/28 05:42:44;;;;;;;14.43;6.78;;;15.90;99.90;;;;;;5009270;28;20811;-72
2023/06/28 05:45:10;;;;;;;11.60;5.97;;;15.90;99.90;;;;;;5009357;28;20033;-76
2023/06/28 05:47:36;;;;;;;11.63;6.30;;;15.90;99.90;;;;;;5009703;28;20042;-74
2023/06/28 05:50:02;;;;;;;12.55;6.60;;;16.00;99.90;;;;;;5009874;28;20038;-75
2023/06/28 05:52:28;;;;;;;11.23;6.57;;;16.00;99.90;;;;;;5009532;28;20038;-79
2023/06/28 05:54:53;;;;;;;12.32;6.57;;;16.00;99.90;;;;;;5009882;28;20045;-79
2023/06/28 05:57:19;;;;;;;14.50;6.25;;;16.10;99.90;;;;;;5009661;28;20065;-76
2023/06/28 05:59:45;;;;;;;14.20;6.38;;;16.10;99.90;;;;;;5009258;28;20037;-78
2023/06/28 06:02:10;;;;;;;13.48;5.90;;;16.20;99.90;;;;;;5008001;28;20029;-78
2023/06/28 06:04:36;;;;;;;12.32;5.95;;;16.40;99.90;;;;;;5010093;28;20159;-76
2023/06/28 06:07:02;;;;;;;11.95;5.90;;;16.40;99.90;;;;;;5007110;28;20608;-78
2023/06/28 06:09:29;;;;;;;9.80;5.53;;;16.50;99.90;;;;;;5006907;28;20038;-78
2023/06/28 06:11:55;;;;;;;11.70;6.20;;;16.50;99.90;;;;;;5006908;28;20033;-80
2023/06/28 06:14:20;;;;;;;11.63;5.53;;;16.50;99.90;;;;;;5005740;28;20477;-77
2023/06/28 06:16:46;;;;;;;10.82;5.75;;;16.60;99.90;;;;;;5005204;28;20041;-76
2023/06/28 06:19:12;;;;;;;12.43;6.30;;;16.60;99.90;;;;;;5008633;28;20029;-77
2023/06/28 06:21:37;;;;;;;22.13;5.70;;;16.60;99.90;;;;;;5005762;28;20499;-70
2023/06/28 06:24:07;;;;;;;13.90;5.93;;;16.50;99.90;;;;;;5009185;28;20030;-72
2023/06/28 06:26:36;;;;;;;12.07;5.97;;;16.40;99.90;;;;;;5010016;28;20405;-79
2023/06/28 06:29:02;;;;;;;14.98;6.72;;;16.40;99.90;;;;;;5008114;28;20830;-76
2023/06/28 06:31:29;;;;;;;10.65;5.43;;;16.40;99.90;;;;;;5009954;28;20087;-75
2023/06/28 06:34:01;;;;;;;10.35;5.50;;;16.40;99.90;;;;;;5007572;28;20069;-75
2023/06/28 06:36:27;;;;;;;11.85;5.75;;;16.60;99.90;;;;;;5008404;28;20191;-76
2023/06/28 06:38:54;;;;;;;9.55;6.13;;;16.70;99.90;;;;;;5008196;28;20117;-79
2023/06/28 06:41:21;;;;;;;10.25;6.60;;;16.80;99.90;;;;;;5009614;28;20038;-78
2023/06/28 06:43:46;;;;;;;11.90;6.65;;;16.80;99.90;;;;;;5006668;28;20025;-74
2023/06/28 06:46:12;;;;;;;12.10;5.65;;;17.00;99.90;;;;;;5007953;28;20483;-71
2023/06/28 06:48:38;;;;;;;12.73;5.80;;;17.10;99.90;;;;;;5008506;28;20022;-77
2023/06/28 06:51:07;;;;;;;14.18;5.90;;;17.20;99.90;;;;;;5005297;28;20042;-73
2023/06/28 06:53:33;;;;;;;11.30;6.40;;;17.20;99.90;;;;;;5008734;28;20474;-78
2023/06/28 06:55:59;;;;;;;12.50;6.30;;;17.20;99.90;;;;;;5006104;28;20083;-75
2023/06/28 06:58:25;;;;;;;12.32;5.30;;;17.10;99.90;;;;;;5008249;28;20033;-74
2023/06/28 07:00:52;;;;;;;12.25;6.38;;;17.10;99.90;;;;;;4990535;28;20053;-76
2023/06/28 07:03:18;;;;;;;10.38;6.15;;;17.10;99.90;;;;;;5006436;28;20037;-78
2023/06/28 07:05:44;;;;;;;11.18;6.38;;;17.10;99.90;;;;;;5007833;28;20371;-74
2023/06/28 07:08:10;;;;;;;10.55;5.55;;;17.20;99.90;;;;;;5003542;28;20041;-76
2023/06/28 07:10:35;;;;;;;15.15;5.68;;;17.20;99.90;;;;;;5004652;28;20425;-77
2023/06/28 07:13:01;;;;;;;13.60;6.10;;;17.30;99.90;;;;;;5004878;28;20029;-76
2023/06/28 07:15:27;;;;;;;9.57;5.60;;;17.40;99.90;;;;;;5004624;28;20083;-75
2023/06/28 07:17:53;;;;;;;13.35;6.03;;;17.40;99.90;;;;;;5007207;28;20042;-74
2023/06/28 07:20:20;;;;;;;13.95;5.93;;;17.50;99.90;;;;;;5009149;28;20021;-76
2023/06/28 07:22:45;;;;;;;16.55;6.35;;;17.60;99.90;;;;;;5007591;28;20037;-71
2023/06/28 07:25:12;;;;;;;12.45;6.32;;;17.60;99.90;;;;;;5008909;28;20025;-80
2023/06/28 07:27:38;;;;;;;14.38;6.00;;;17.40;99.90;;;;;;5007994;28;20125;-78
2023/06/28 07:30:04;;;;;;;11.70;5.70;;;17.50;99.90;;;;;;5008317;28;20121;-78
2023/06/28 07:32:29;;;;;;;12.18;5.68;;;17.60;99.90;;;;;;5009018;28;20030;-80
2023/06/28 07:34:55;;;;;;;11.15;5.85;;;17.70;99.90;;;;;;5006988;28;20111;-79
2023/06/28 07:37:21;;;;;;;17.35;5.70;;;17.80;99.90;;;;;;5008876;28;20030;-78
2023/06/28 07:39:47;;;;;;;8.13;5.22;;;17.90;99.90;;;;;;5007176;28;20681;-76
2023/06/28 07:42:13;;;;;;;10.65;5.68;;;18.00;99.90;;;;;;5007731;28;20038;-78
2023/06/28 07:44:39;;;;;;;11.43;5.38;;;18.10;99.90;;;;;;5008885;28;20029;-80
2023/06/28 07:47:05;;;;;;;14.85;5.43;;;18.10;99.90;;;;;;5007314;28;20117;-75
2023/06/28 07:49:31;;;;;;;10.27;5.75;;;18.10;99.90;;;;;;5008857;28;20053;-77
2023/06/28 07:51:58;;;;;;;11.05;5.47;;;18.30;99.90;;;;;;5007257;28;20171;-75
2023/06/28 07:54:23;;;;;;;9.48;5.13;;;18.50;99.90;;;;;;5008800;28;20037;-79
2023/06/28 07:56:49;;;;;;;8.63;4.65;;;18.50;99.90;;;;;;5006336;28;20414;-75
2023/06/28 07:59:15;;;;;;;11.27;5.53;;;18.60;99.90;;;;;;5007942;28;20498;-75
2023/06/28 08:01:41;;;;;;;11.88;5.10;;;18.70;99.90;;;;;;5007943;28;20104;-77
2023/06/28 08:04:07;;;;;;;10.05;5.50;;;18.70;99.90;;;;;;5008000;28;20613;-75
2023/06/28 08:06:32;;;;;;;11.05;5.22;;;18.80;99.90;;;;;;5007825;28;20033;-73
2023/06/28 08:09:03;;;;;;;11.15;5.20;;;18.70;99.90;;;;;;5007922;28;20029;-75
2023/06/28 08:11:28;;;;;;;10.27;5.15;;;18.70;99.90;;;;;;4990142;28;20390;-78
2023/06/28 08:13:54;;;;;;;12.93;5.10;;;18.80;99.90;;;;;;5007157;28;20041;-78
2023/06/28 08:16:29;;;;;;;11.02;5.88;;;18.80;99.90;;;;;;5008645;28;20030;-78
2023/06/28 08:18:54;;;;;;;13.18;5.80;;;18.80;99.90;;;;;;5007692;28;20053;-77
2023/06/28 08:21:21;;;;;;;12.57;5.38;;;18.80;99.90;;;;;;5009683;28;20528;-77
2023/06/28 08:23:46;;;;;;;8.45;5.05;;;18.90;99.90;;;;;;5011804;28;20555;-69
2023/06/28 08:26:12;;;;;;;12.70;5.10;;;19.10;99.90;;;;;;5009260;28;20046;-73
2023/06/28 08:28:38;;;;;;;11.80;5.10;;;19.10;99.90;;;;;;5011444;28;20386;-78
2023/06/28 08:31:08;;;;;;;12.82;5.13;;;19.20;99.90;;;;;;5011438;28;20033;-75
2023/06/28 08:33:36;;;;;;;;;;;19.30;99.90;;;;;;5011389;28;20054;-73
2023/06/28 08:36:02;;;;;;;11.23;4.88;;;19.40;99.90;;;;;;5010316;28;19920;-76
2023/06/28 08:38:28;;;;;;;8.93;4.13;;;19.60;99.90;;;;;;5010815;28;20038;-78
2023/06/28 08:40:53;;;;;;;7.97;4.03;;;19.90;99.90;;;;;;5009820;28;20088;-75
2023/06/28 08:43:23;;;;;;;7.90;4.70;;;20.00;99.90;;;;;;5012039;28;20026;-78
2023/06/28 08:45:49;;;;;;;8.68;4.43;;;20.00;99.90;;;;;;5010902;28;20050;-75
2023/06/28 08:48:16;;;;;;;11.65;4.72;;;19.90;99.90;;;;;;5009450;28;20046;-78
2023/06/28 08:50:46;;;;;;;12.73;4.75;;;20.00;99.90;;;;;;5010755;28;20049;-78
2023/06/28 08:53:19;;;;;;;9.03;4.20;;;20.20;99.90;;;;;;5010752;28;20084;-74
2023/06/28 08:55:47;;;;;;;9.77;4.68;;;20.60;99.90;;;;;;5011770;28;20112;-77
2023/06/28 08:58:14;;;;;;;8.63;4.00;;;20.70;99.90;;;;;;5008820;28;20044;-73
2023/06/28 09:00:44;;;;;;;10.38;4.35;;;20.80;99.90;;;;;;5010177;28;20372;-78
2023/06/28 09:03:10;;;;;;;13.05;4.25;;;20.80;99.90;;;;;;5009285;28;20075;-77
2023/06/28 09:05:39;;;;;;;9.05;4.38;;;20.80;99.90;;;;;;5011642;28;20033;-77
2023/06/28 09:08:06;;;;;;;16.88;5.28;;;20.80;99.90;;;;;;5008311;28;20046;-74
2023/06/28 09:10:34;;;;;;;6.85;4.20;;;20.60;99.90;;;;;;5010402;28;20454;-72
2023/06/28 09:13:01;;;;;;;7.13;4.35;;;20.60;99.90;;;;;;5008208;28;20030;-78
2023/06/28 09:15:28;;;;;;;14.75;4.43;;;20.80;99.90;;;;;;5011252;28;20832;-79
2023/06/28 09:17:54;;;;;;;15.43;5.03;;;21.10;99.90;;;;;;5008802;28;20147;-75
2023/06/28 09:20:24;;;;;;;12.73;5.30;;;21.30;99.90;;;;;;5009559;28;20554;-80
2023/06/28 09:22:58;;;;;;;16.15;4.85;;;21.60;99.90;;;;;;5009615;28;20172;-73
2023/06/28 09:25:33;;;;;;;9.65;5.07;;;21.50;99.70;;;;;;5010246;28;20565;-77
2023/06/28 09:28:02;;;;;;;11.05;4.32;;;21.30;99.30;;;;;;5009420;28;20045;-72
2023/06/28 09:30:27;;;;;;;9.13;4.45;;;21.30;99.10;;;;;;5010345;28;20038;-78
2023/06/28 09:32:56;;;;;;;8.68;4.03;;;21.40;98.50;;;;;;5009003;28;20037;-71
2023/06/28 09:35:23;;;;;;;8.20;4.22;;;21.60;97.60;;;;;;5011316;28;20030;-76
2023/06/28 09:37:53;;;;;;;7.85;4.30;;;22.20;98.30;;;;;;5010289;28;20041;-78
2023/06/28 09:40:21;;;;;;;14.55;4.72;;;22.30;98.70;;;;;;5010271;28;20036;-78
2023/06/28 09:42:49;;;;;;;8.65;5.00;;;22.70;99.20;;;;;;5010055;28;20041;-78
2023/06/28 09:45:37;;;;;;;12.85;4.93;;;22.20;97.10;;;;;;5010373;28;20446;-74
2023/06/28 09:48:04;;;;;;;13.43;4.60;;;22.20;98.80;;;;;;5009924;28;20033;-77
2023/06/28 09:50:39;;;;;;;12.05;4.68;;;22.50;96.20;;;;;;5011086;28;20066;-74
2023/06/28 09:53:15;;;;;;;10.95;5.07;;;22.60;95.90;;;;;;5008858;28;20135;-78
2023/06/28 09:55:45;;;;;;;9.40;4.25;;;22.40;97.80;;;;;;5007015;28;20489;-72
2023/06/28 09:58:16;;;;;;;7.63;4.88;;;22.70;96.00;;;;;;5001357;28;20529;-78
2023/06/28 10:00:42;;;;;;;;;;;22.80;96.30;;;;;;5009787;28;20061;-78
2023/06/28 10:03:10;;;;;;;11.23;4.53;;;22.80;95.60;;;;;;5008690;28;19917;-77
2023/06/28 10:05:39;;;;;;;6.88;4.22;;;22.80;95.30;;;;;;5005775;28;20041;-80
2023/06/28 10:08:16;;;;;;;10.40;4.43;;;22.40;94.00;;;;;;5001490;28;20042;-78
2023/06/28 10:10:43;;;;;;;7.10;3.45;;;21.90;93.90;;;;;;5007496;28;20775;-76
2023/06/28 10:13:18;;;;;;;9.60;3.67;;;21.50;93.90;;;;;;5009520;28;20437;-77
2023/06/28 10:16:02;;;;;;;12.60;3.30;;;21.30;94.90;;;;;;5006046;28;20072;-75
2023/06/28 10:18:29;;;;;;;11.98;4.40;;;20.90;94.10;;;;;;5005977;28;20113;-74
2023/06/28 10:20:55;;;;;;;13.13;3.70;;;20.50;96.00;;;;;;5007194;28;20486;-72
2023/06/28 10:23:22;;;;;;;6.45;4.00;;;20.50;95.40;;;;;;5007349;28;20026;-76
2023/06/28 10:25:48;;;;;;;9.43;3.88;;;20.60;96.10;;;;;;5007785;28;20034;-76
2023/06/28 10:28:14;;;;;;;5.55;3.40;;;20.80;95.80;;;;;;5008284;28;20240;-78
2023/06/28 10:30:41;;;;;;;9.93;3.85;;;21.10;96.00;;;;;;5003810;28;20471;-75
2023/06/28 10:33:08;;;;;;;11.23;4.35;;;21.80;94.80;;;;;;5008891;28;20119;-72
2023/06/28 10:35:35;;;;;;;10.85;4.10;;;22.20;92.90;;;;;;5008627;28;20466;-73
2023/06/28 10:38:01;;;;;;;7.40;4.10;;;22.60;92.40;;;;;;5009055;28;20038;-76
2023/06/28 10:40:27;;;;;;;8.70;4.07;;;22.90;91.90;;;;;;5009804;28;20029;-76
2023/06/28 10:42:53;;;;;;;9.35;3.88;;;23.30;90.90;;;;;;5009565;28;20502;-71
2023/06/28 10:45:35;;;;;;;9.60;3.83;;;23.20;90.80;;;;;;5006415;28;20030;-76
2023/06/28 10:48:02;;;;;;;13.50;3.92;;;23.10;91.20;;;;;;5002286;28;20045;-75
2023/06/28 10:50:29;;;;;;;7.03;4.50;;;22.60;91.60;;;;;;5008761;28;20063;-72
2023/06/28 10:52:58;;;;;;;9.27;4.18;;;22.00;92.30;;;;;;5009270;28;20058;-71
2023/06/28 10:55:32;;;;;;;10.45;4.20;;;21.50;93.20;;;;;;5008570;28;20474;-72
2023/06/28 10:58:06;;;;;;;8.85;4.18;;;21.60;92.00;;;;;;5007009;28;20113;-70
2023/06/28 11:00:40;;;;;;;8.00;3.70;;;21.50;93.10;;;;;;5006067;28;20375;-74
2023/06/28 11:03:07;;;;;;;11.00;4.15;;;21.90;91.70;;;;;;5007805;28;20478;-73
2023/06/28 11:05:36;;;;;;;7.28;3.83;;;22.70;93.30;;;;;;5009399;28;20430;-72
2023/06/28 11:08:14;;;;;;;7.72;3.70;;;23.30;90.10;;;;;;5006346;28;20040;-74
2023/06/28 11:10:44;;;;;;;6.25;2.83;;;23.70;91.90;;;;;;5001790;28;20120;-75
2023/06/28 11:13:33;;;;;;;6.70;2.65;;;24.10;84.20;;;;;;5007109;28;20041;-73
2023/06/28 11:16:12;;;;;;;8.23;2.88;;;24.30;82.30;;;;;;4990308;28;20386;-72
2023/06/28 11:18:41;;;;;;;5.60;2.90;;;24.30;81.10;;;;;;5008918;28;20057;-77
2023/06/28 11:21:16;;;;;;;6.82;3.35;;;24.80;85.20;;;;;;5007572;28;20045;-76
2023/06/28 11:23:45;;;;;;;5.82;3.15;;;25.20;81.10;;;;;;5008459;28;20785;-75
2023/06/28 11:26:16;;;;;;;8.80;3.55;;;25.00;82.40;;;;;;5007045;28;20056;-75
2023/06/28 11:28:54;;;;;;;6.78;3.17;;;24.40;83.90;;;;;;5009088;28;20087;-73
2023/06/28 11:31:36;;;;;;;9.98;3.50;;;24.50;85.30;;;;;;5007115;28;20517;-72
2023/06/28 11:34:03;;;;;;;13.25;3.63;;;24.20;84.70;;;;;;5007840;28;20060;-71
2023/06/28 11:36:31;;;;;;;6.10;3.17;;;23.90;83.90;;;;;;5009054;28;20041;-71
2023/06/28 11:38:57;;;;;;;6.38;3.10;;;23.40;82.50;;;;;;5006636;28;20796;-73
2023/06/28 11:41:23;;;;;;;8.32;3.33;;;22.90;83.50;;;;;;5008584;28;20096;-79
2023/06/28 11:43:49;;;;;;;8.30;3.20;;;22.90;86.00;;;;;;5008941;28;20026;-77
2023/06/28 11:46:19;;;;;;;5.22;3.00;;;23.30;86.60;;;;;;5008392;28;20042;-74
2023/06/28 11:48:50;;;;;;;5.70;2.80;;;24.00;82.90;;;;;;5008813;28;20038;-74
2023/06/28 11:51:16;;;;;;;10.68;2.80;;;24.30;79.80;;;;;;5007407;28;20034;-74
2023/06/28 11:53:48;;;;;;;8.95;3.42;;;24.20;81.10;;;;;;5007115;28;20740;-78
2023/06/28 11:56:14;;;;;;;7.10;3.20;;;24.40;81.30;;;;;;5008748;28;20514;-75
2023/06/28 11:58:40;;;;;;;5.35;2.92;;;24.40;78.20;;;;;;5010886;28;20095;-74
2023/06/28 12:01:06;;;;;;;4.05;2.90;;;23.80;79.80;;;;;;5012302;28;20045;-76
2023/06/28 12:03:37;;;;;;;6.00;3.00;;;23.70;80.70;;;;;;5012631;28;20030;-76
2023/06/28 12:06:09;;;;;;;8.73;2.95;;;23.30;79.70;;;;;;5011090;28;20045;-73
2023/06/28 12:08:40;;;;;;;5.53;2.70;;;22.80;82.70;;;;;;5011831;28;20397;-76
2023/06/28 12:11:14;;;;;;;6.88;2.80;;;22.90;83.50;;;;;;5010157;28;20029;-75
2023/06/28 12:13:43;;;;;;;4.18;2.80;;;22.90;81.50;;;;;;5011157;28;20053;-75
2023/06/28 12:16:18;;;;;;;4.72;2.67;;;22.80;82.80;;;;;;5011588;28;20486;-74
2023/06/28 12:19:01;;;;;;;5.65;2.83;;;22.90;83.10;;;;;;5012424;28;20116;-77
2023/06/28 12:21:28;;;;;;;5.63;2.50;;;23.10;83.90;;;;;;5011036;28;20033;-78
2023/06/28 12:24:30;;;;;;;5.82;2.78;;;23.20;82.30;;;;;;5011546;28;20042;-79
2023/06/28 12:27:02;;;;;;;7.32;3.40;;;23.00;81.80;;;;;;5011360;28;20450;-77
2023/06/28 12:29:35;;;;;;;7.95;2.97;;;23.00;81.80;;;;;;5010860;28;20038;-78
2023/06/28 12:32:14;;;;;;;5.22;2.55;;;23.10;82.80;;;;;;5011131;28;20033;-73
2023/06/28 12:34:48;;;;;;;3.95;2.72;;;23.40;82.00;;;;;;5010900;28;20054;-74
2023/06/28 12:37:14;;;;;;;4.78;2.72;;;23.80;84.30;;;;;;5010501;28;20038;-78
2023/06/28 12:39:41;;;;;;;6.15;2.70;;;24.40;79.10;;;;;;5010123;28;20833;-78
2023/06/28 12:42:18;;;;;;;8.90;2.67;;;24.40;76.40;;;;;;5011335;28;20080;-74